Time;durP1;ratioP1;P1;durP2;ratioP2;P2;SDS_P1;SDS_P2;PMS_P1;PMS_P2;Temp;Humidity;BMP_temperature;BMP_pressure;BME280_temperature;BME280_humidity;BME280_pressure;Samples;Min_cycle;Max_cycle;Signal;HPM_P1;HPM_P2
2023/08/13 00:00:55;;;;;;;7.35;2.88;;;;;;;;;;4992476;28;20047;-68
2023/08/13 00:03:22;;;;;;;4.32;2.70;;;;;;;;;;4992639;28;20435;-68
2023/08/13 00:05:49;;;;;;;5.13;2.95;;;;;;;;;;4992603;28;20054;-69
2023/08/13 00:08:16;;;;;;;6.72;2.90;;;;;;;;;;4992673;28;20399;-68
2023/08/13 00:10:43;;;;;;;4.40;2.85;;;;;;;;;;4992750;28;20042;-68
2023/08/13 00:13:10;;;;;;;3.50;2.90;;;;;;;;;;4992475;28;20133;-68
2023/08/13 00:15:37;;;;;;;8.63;3.33;;;;;;;;;;4992762;28;20145;-68
2023/08/13 00:18:03;;;;;;;6.28;3.50;;;;;;;;;;4991988;28;20051;-68
2023/08/13 00:20:30;;;;;;;3.45;2.90;;;;;;;;;;4992684;28;20054;-68
2023/08/13 00:22:57;;;;;;;5.47;2.88;;;;;;;;;;4992419;28;20042;-68
2023/08/13 00:25:25;;;;;;;4.07;3.00;;;;;;;;;;4992751;28;20063;-68
2023/08/13 00:27:51;;;;;;;9.20;3.72;;;;;;;;;;4992346;28;20061;-68
2023/08/13 00:30:18;;;;;;;6.72;3.40;;;;;;;;;;4992307;28;20412;-68
2023/08/13 00:32:45;;;;;;;4.35;3.00;;;;;;;;;;4992129;28;20054;-68
2023/08/13 00:35:11;;;;;;;4.07;2.30;;;;;;;;;;4991739;28;20054;-68
2023/08/13 00:37:38;;;;;;;5.40;2.85;;;;;;;;;;4992366;28;20046;-68
2023/08/13 00:40:06;;;;;;;4.18;2.58;;;;;;;;;;4991687;28;20500;-68
2023/08/13 00:42:34;;;;;;;4.78;2.30;;;;;;;;;;4992191;28;20484;-68
2023/08/13 00:45:01;;;;;;;5.55;2.70;;;;;;;;;;4991727;28;20046;-68
2023/08/13 00:47:27;;;;;;;6.88;3.50;;;;;;;;;;4992056;28;20238;-68
2023/08/13 00:49:54;;;;;;;8.05;3.63;;;;;;;;;;4991431;28;20476;-68
2023/08/13 00:52:21;;;;;;;4.45;2.65;;;;;;;;;;4991857;28;20054;-68
2023/08/13 00:54:48;;;;;;;3.47;2.40;;;;;;;;;;4991831;28;20330;-68
2023/08/13 00:57:14;;;;;;;3.17;2.42;;;;;;;;;;4992069;28;20069;-68
2023/08/13 00:59:43;;;;;;;7.72;2.47;;;;;;;;;;4991650;28;20050;-68
2023/08/13 01:02:10;;;;;;;5.95;3.20;;;;;;;;;;4991909;28;20053;-68
2023/08/13 01:04:36;;;;;;;4.03;2.83;;;;;;;;;;4991141;28;20137;-68
2023/08/13 01:07:09;;;;;;;3.03;2.70;;;;;;;;;;4992001;28;20051;-68
2023/08/13 01:09:43;;;;;;;6.85;2.92;;;;;;;;;;4991258;28;20046;-68
2023/08/13 01:12:19;;;;;;;5.32;3.10;;;;;;;;;;4991951;28;20077;-68
2023/08/13 01:14:55;;;;;;;5.80;3.55;;;;;;;;;;4991650;28;20050;-68
2023/08/13 01:17:23;;;;;;;6.15;3.25;;;;;;;;;;4991609;28;20137;-68
2023/08/13 01:19:49;;;;;;;7.32;3.67;;;;;;;;;;4991709;28;20057;-68
2023/08/13 01:22:16;;;;;;;9.18;3.55;;;;;;;;;;4991008;28;20057;-68
2023/08/13 01:24:44;;;;;;;6.32;4.05;;;;;;;;;;4991895;28;20050;-68
2023/08/13 01:27:19;;;;;;;4.68;3.63;;;;;;;;;;4991195;28;20046;-68
2023/08/13 01:29:49;;;;;;;7.07;4.55;;;;;;;;;;4991125;28;20061;-68
2023/08/13 01:32:21;;;;;;;6.15;4.07;;;;;;;;;;4991174;28;20077;-68
2023/08/13 01:34:48;;;;;;;4.80;4.03;;;;;;;;;;4991692;28;20092;-68
2023/08/13 01:37:15;;;;;;;5.13;4.00;;;;;;;;;;4991040;28;20061;-68
2023/08/13 01:39:43;;;;;;;6.72;4.45;;;;;;;;;;4990855;28;20137;-68
2023/08/13 01:42:11;;;;;;;4.88;3.83;;;;;;;;;;4990969;28;20046;-68
2023/08/13 01:44:38;;;;;;;9.02;4.00;;;;;;;;;;4991396;28;20050;-68
2023/08/13 01:47:05;;;;;;;5.63;3.88;;;;;;;;;;4990329;28;20054;-68
2023/08/13 01:49:32;;;;;;;5.72;3.90;;;;;;;;;;4991011;28;20046;-69
2023/08/13 01:51:58;;;;;;;4.70;3.50;;;;;;;;;;4990897;28;20046;-68
2023/08/13 01:54:25;;;;;;;7.30;3.25;;;;;;;;;;4991240;28;20127;-68
2023/08/13 01:56:53;;;;;;;6.90;3.80;;;;;;;;;;4991574;28;20484;-68
2023/08/13 01:59:20;;;;;;;4.80;3.50;;;;;;;;;;4997065;28;20053;-68
2023/08/13 02:01:46;;;;;;;4.38;3.33;;;;;;;;;;4997586;28;20042;-68
2023/08/13 02:04:13;;;;;;;6.40;3.40;;;;;;;;;;4996840;28;20052;-68
2023/08/13 02:06:39;;;;;;;7.40;3.17;;;;;;;;;;4997105;28;20122;-68
2023/08/13 02:09:06;;;;;;;4.63;3.70;;;;;;;;;;4996986;28;20480;-68
2023/08/13 02:11:33;;;;;;;4.75;3.10;;;;;;;;;;4997015;28;20062;-68
2023/08/13 02:14:01;;;;;;;4.90;3.38;;;;;;;;;;4997188;28;20047;-68
2023/08/13 02:16:28;;;;;;;6.65;3.30;;;;;;;;;;4997646;28;20054;-68
2023/08/13 02:18:54;;;;;;;3.25;2.95;;;;;;;;;;4996982;28;20480;-69
2023/08/13 02:21:21;;;;;;;6.40;3.13;;;;;;;;;;4997161;28;20411;-68
2023/08/13 02:23:47;;;;;;;6.22;3.63;;;;;;;;;;4996914;28;20054;-69
2023/08/13 02:26:14;;;;;;;7.32;3.60;;;;;;;;;;4997401;28;20496;-68
2023/08/13 02:28:42;;;;;;;4.15;3.00;;;;;;;;;;4996959;28;20455;-68
2023/08/13 02:31:10;;;;;;;4.03;3.13;;;;;;;;;;4997151;28;20046;-68
2023/08/13 02:33:37;;;;;;;4.05;2.80;;;;;;;;;;4997864;28;20054;-68
2023/08/13 02:36:04;;;;;;;5.70;3.13;;;;;;;;;;4996873;28;20066;-68
2023/08/13 02:38:30;;;;;;;3.30;2.90;;;;;;;;;;4997293;28;20046;-68
2023/08/13 02:40:57;;;;;;;5.05;3.15;;;;;;;;;;4996488;28;20054;-68
2023/08/13 02:43:27;;;;;;;4.35;3.03;;;;;;;;;;4997155;28;20413;-68
2023/08/13 02:45:54;;;;;;;5.13;3.05;;;;;;;;;;4996445;28;20133;-68
2023/08/13 02:48:22;;;;;;;4.47;3.40;;;;;;;;;;4996819;28;20051;-69
2023/08/13 02:50:48;;;;;;;6.45;3.33;;;;;;;;;;4996352;28;20050;-68
2023/08/13 02:53:15;;;;;;;7.45;3.85;;;;;;;;;;4996910;28;20042;-68
2023/08/13 02:55:41;;;;;;;6.18;3.97;;;;;;;;;;4996571;28;20050;-68
2023/08/13 02:58:08;;;;;;;4.72;4.00;;;;;;;;;;4996748;28;20046;-68
2023/08/13 03:00:34;;;;;;;7.90;4.03;;;;;;;;;;4996058;28;20043;-68
2023/08/13 03:03:01;;;;;;;9.45;4.43;;;;;;;;;;4997097;28;20046;-68
2023/08/13 03:05:30;;;;;;;5.68;4.00;;;;;;;;;;4996327;28;20060;-68
2023/08/13 03:07:57;;;;;;;5.43;4.40;;;;;;;;;;4997092;28;20053;-68
2023/08/13 03:10:23;;;;;;;6.72;4.32;;;;;;;;;;4992817;28;20046;-68
2023/08/13 03:12:50;;;;;;;5.40;3.90;;;;;;;;;;4993482;28;20050;-68
2023/08/13 03:15:16;;;;;;;6.38;4.20;;;;;;;;;;4993959;28;20173;-68
2023/08/13 03:17:43;;;;;;;5.90;4.20;;;;;;;;;;4992933;28;20056;-68
2023/08/13 03:20:10;;;;;;;5.38;4.35;;;;;;;;;;4993806;28;20266;-68
2023/08/13 03:22:38;;;;;;;7.15;4.30;;;;;;;;;;4993466;28;20057;-68
2023/08/13 03:25:06;;;;;;;7.30;3.95;;;;;;;;;;4993842;28;20057;-68
2023/08/13 03:27:32;;;;;;;5.45;3.90;;;;;;;;;;4992872;28;20050;-68
2023/08/13 03:29:59;;;;;;;4.68;3.72;;;;;;;;;;4993210;28;20050;-68
2023/08/13 03:32:25;;;;;;;4.70;3.83;;;;;;;;;;4993622;28;20403;-68
2023/08/13 03:34:52;;;;;;;4.90;4.20;;;;;;;;;;4993664;28;20046;-68
2023/08/13 03:37:19;;;;;;;6.90;4.22;;;;;;;;;;4993077;28;20050;-68
2023/08/13 03:39:47;;;;;;;9.35;3.97;;;;;;;;;;4993553;28;20133;-69
2023/08/13 03:42:13;;;;;;;5.60;4.20;;;;;;;;;;4993297;28;20049;-68
2023/08/13 03:44:41;;;;;;;7.15;4.75;;;;;;;;;;4993457;28;20046;-68
2023/08/13 03:47:07;;;;;;;6.72;4.82;;;;;;;;;;4993463;28;20050;-68
2023/08/13 03:49:34;;;;;;;8.70;4.88;;;;;;;;;;4992711;28;20047;-68
2023/08/13 03:52:01;;;;;;;5.50;4.28;;;;;;;;;;4993593;28;20052;-68
2023/08/13 03:54:27;;;;;;;4.95;3.55;;;;;;;;;;4992972;28;20046;-68
2023/08/13 03:56:55;;;;;;;5.70;4.00;;;;;;;;;;4993019;28;20046;-68
2023/08/13 03:59:22;;;;;;;4.55;3.70;;;;;;;;;;4992556;28;20053;-68
2023/08/13 04:01:48;;;;;;;5.97;3.95;;;;;;;;;;4992816;28;20050;-68
2023/08/13 04:04:15;;;;;;;7.00;3.75;;;;;;;;;;4992775;28;20052;-68
2023/08/13 04:06:43;;;;;;;7.38;4.15;;;;;;;;;;4992448;28;20056;-68
2023/08/13 04:09:09;;;;;;;6.63;4.07;;;;;;;;;;4992304;28;20404;-68
2023/08/13 04:11:36;;;;;;;5.85;3.92;;;;;;;;;;4992753;28;20411;-68
2023/08/13 04:14:04;;;;;;;6.32;3.72;;;;;;;;;;4992377;28;20046;-71
2023/08/13 04:16:30;;;;;;;5.72;3.78;;;;;;;;;;4992449;28;20050;-71
2023/08/13 04:18:57;;;;;;;6.63;3.72;;;;;;;;;;4991689;28;20046;-71
2023/08/13 04:21:24;;;;;;;3.72;3.33;;;;;;;;;;4991656;28;20047;-71
2023/08/13 04:23:54;;;;;;;4.18;3.25;;;;;;;;;;4992620;28;20081;-71
2023/08/13 04:26:21;;;;;;;3.85;2.95;;;;;;;;;;4991562;28;20046;-71
2023/08/13 04:28:48;;;;;;;5.88;3.55;;;;;;;;;;4992235;28;20046;-71
2023/08/13 04:31:17;;;;;;;5.13;3.33;;;;;;;;;;4991696;28;20165;-71
2023/08/13 04:33:43;;;;;;;4.65;3.08;;;;;;;;;;4992281;28;20074;-70
2023/08/13 04:36:10;;;;;;;5.78;3.72;;;;;;;;;;4991466;28;20050;-71
2023/08/13 04:38:36;;;;;;;5.30;3.20;;;;;;;;;;4991708;28;20046;-72
2023/08/13 04:41:03;;;;;;;3.75;3.38;;;;;;;;;;4990907;28;20042;-71
2023/08/13 04:43:29;;;;;;;5.30;3.70;;;;;;;;;;4991937;28;20061;-70
2023/08/13 04:45:56;;;;;;;5.13;3.47;;;;;;;;;;4991389;28;20046;-71
2023/08/13 04:48:42;;;;;;;6.28;3.45;;;;;;;;;;4992123;28;20046;-71
2023/08/13 04:51:09;;;;;;;6.38;3.63;;;;;;;;;;4991087;28;20051;-71
2023/08/13 04:53:35;;;;;;;6.05;3.55;;;;;;;;;;4991791;28;20051;-71
2023/08/13 04:56:02;;;;;;;5.03;2.92;;;;;;;;;;4991145;28;20042;-71
2023/08/13 04:58:29;;;;;;;4.00;3.40;;;;;;;;;;4991347;28;20046;-71
2023/08/13 05:00:55;;;;;;;4.55;3.10;;;;;;;;;;4990654;28;20050;-71
2023/08/13 05:03:22;;;;;;;4.78;2.92;;;;;;;;;;4991658;28;20053;-70
2023/08/13 05:05:50;;;;;;;4.10;3.20;;;;;;;;;;4991292;28;20050;-71
2023/08/13 05:08:17;;;;;;;7.68;3.22;;;;;;;;;;4990685;28;20053;-71
2023/08/13 05:10:44;;;;;;;4.65;3.67;;;;;;;;;;4991413;28;20049;-71
2023/08/13 05:13:11;;;;;;;3.08;2.65;;;;;;;;;;4991126;28;20491;-71
2023/08/13 05:15:38;;;;;;;6.03;3.05;;;;;;;;;;4991415;28;20129;-70
2023/08/13 05:18:06;;;;;;;4.45;2.80;;;;;;;;;;4990871;28;20054;-71
2023/08/13 05:20:32;;;;;;;4.05;2.78;;;;;;;;;;4991259;28;20053;-71
2023/08/13 05:23:00;;;;;;;3.53;2.90;;;;;;;;;;4990809;28;20076;-71
2023/08/13 05:25:27;;;;;;;5.20;2.80;;;;;;;;;;4991228;28;20048;-71
2023/08/13 05:27:54;;;;;;;2.58;2.28;;;;;;;;;;4990666;28;20046;-71
2023/08/13 05:30:20;;;;;;;5.18;2.63;;;;;;;;;;4990999;28;20053;-71
2023/08/13 05:32:47;;;;;;;2.40;2.20;;;;;;;;;;4990142;28;20056;-70
2023/08/13 05:35:14;;;;;;;4.47;2.30;;;;;;;;;;4990802;28;20137;-71
2023/08/13 05:37:40;;;;;;;3.70;2.20;;;;;;;;;;4990859;28;20492;-71
2023/08/13 05:40:10;;;;;;;2.58;2.30;;;;;;;;;;4990504;28;20059;-70
2023/08/13 05:42:36;;;;;;;4.55;2.40;;;;;;;;;;4991313;28;20054;-70
2023/08/13 05:45:03;;;;;;;3.65;2.60;;;;;;;;;;4990421;28;20046;-71
2023/08/13 05:47:30;;;;;;;4.07;2.20;;;;;;;;;;4990844;28;20050;-71
2023/08/13 05:49:56;;;;;;;3.00;2.28;;;;;;;;;;4990265;28;20053;-71
2023/08/13 05:52:24;;;;;;;2.78;2.10;;;;;;;;;;4991172;28;20411;-71
2023/08/13 05:54:51;;;;;;;2.13;1.80;;;;;;;;;;4990849;28;20081;-71
2023/08/13 05:57:18;;;;;;;2.30;2.10;;;;;;;;;;4990810;28;20047;-71
2023/08/13 05:59:45;;;;;;;3.47;2.25;;;;;;;;;;4989990;28;20057;-70
2023/08/13 06:02:11;;;;;;;4.18;2.20;;;;;;;;;;4990841;28;20057;-71
2023/08/13 06:04:38;;;;;;;2.60;2.33;;;;;;;;;;4990246;28;20492;-71
2023/08/13 06:07:05;;;;;;;2.70;2.30;;;;;;;;;;4990741;28;20488;-71
2023/08/13 06:09:32;;;;;;;4.75;2.10;;;;;;;;;;4989893;28;20046;-70
2023/08/13 06:11:58;;;;;;;2.63;2.22;;;;;;;;;;4990567;28;20054;-70
2023/08/13 06:14:27;;;;;;;5.18;1.98;;;;;;;;;;4990370;28;20068;-71
2023/08/13 06:16:53;;;;;;;3.35;1.92;;;;;;;;;;4990174;28;20104;-71
2023/08/13 06:19:20;;;;;;;1.80;1.70;;;;;;;;;;4990720;28;20134;-70
2023/08/13 06:21:46;;;;;;;2.22;1.90;;;;;;;;;;4989853;28;20046;-71
2023/08/13 06:24:13;;;;;;;5.30;1.92;;;;;;;;;;4990645;28;20488;-70
2023/08/13 06:26:39;;;;;;;1.95;1.70;;;;;;;;;;4989997;28;20514;-70
2023/08/13 06:29:06;;;;;;;2.38;2.05;;;;;;;;;;4990326;28;20129;-71
2023/08/13 06:31:35;;;;;;;3.90;2.05;;;;;;;;;;4989432;28;20051;-71
2023/08/13 06:34:02;;;;;;;2.40;1.77;;;;;;;;;;4990561;28;20105;-71
2023/08/13 06:36:28;;;;;;;3.17;1.75;;;;;;;;;;4990084;28;20046;-70
2023/08/13 06:38:55;;;;;;;4.90;1.75;;;;;;;;;;4990322;28;20419;-71
2023/08/13 06:41:22;;;;;;;4.70;2.00;;;;;;;;;;4989621;28;20046;-71
2023/08/13 06:43:48;;;;;;;4.22;1.60;;;;;;;;;;4991638;28;20130;-70
2023/08/13 06:46:14;;;;;;;2.67;1.60;;;;;;;;;;4993583;28;20105;-70
2023/08/13 06:48:42;;;;;;;2.60;1.73;;;;;;;;;;4994298;28;20046;-71
2023/08/13 06:51:11;;;;;;;2.78;1.70;;;;;;;;;;4993627;28;20246;-71
2023/08/13 06:53:38;;;;;;;3.60;1.63;;;;;;;;;;4994201;28;20455;-71
2023/08/13 06:56:05;;;;;;;1.60;1.30;;;;;;;;;;4993887;28;20050;-71
2023/08/13 06:58:31;;;;;;;2.40;1.17;;;;;;;;;;4993498;28;20149;-71
2023/08/13 07:00:58;;;;;;;2.15;1.27;;;;;;;;;;4993708;28;20053;-70
2023/08/13 07:03:24;;;;;;;1.98;1.40;;;;;;;;;;4993819;28;20054;-71
2023/08/13 07:05:52;;;;;;;2.38;1.50;;;;;;;;;;4993748;28;20049;-71
2023/08/13 07:08:19;;;;;;;1.90;1.60;;;;;;;;;;4993230;28;20130;-71
2023/08/13 07:10:45;;;;;;;3.33;1.67;;;;;;;;;;4993808;28;20066;-71
2023/08/13 07:13:12;;;;;;;2.20;1.58;;;;;;;;;;4993115;28;20073;-71
2023/08/13 07:15:38;;;;;;;1.50;1.25;;;;;;;;;;4993808;28;20093;-71
2023/08/13 07:18:06;;;;;;;3.17;1.50;;;;;;;;;;4993091;28;20072;-71
2023/08/13 07:20:32;;;;;;;3.60;1.95;;;;;;;;;;4992902;28;20046;-71
2023/08/13 07:23:00;;;;;;;2.22;1.55;;;;;;;;;;4992763;28;20047;-71
2023/08/13 07:25:27;;;;;;;2.15;1.95;;;;;;;;;;4993116;28;20057;-71
2023/08/13 07:27:54;;;;;;;2.22;1.33;;;;;;;;;;4992885;28;20042;-71
2023/08/13 07:30:21;;;;;;;4.38;1.50;;;;;;;;;;4992448;28;20046;-71
2023/08/13 07:32:48;;;;;;;3.00;1.70;;;;;;;;;;4993487;28;20530;-70
2023/08/13 07:35:15;;;;;;;2.08;1.48;;;;;;;;;;4992732;28;20080;-71
2023/08/13 07:37:42;;;;;;;3.55;1.50;;;;;;;;;;4993152;28;20046;-71
2023/08/13 07:40:12;;;;;;;2.92;1.50;;;;;;;;;;4992054;28;20404;-71
2023/08/13 07:42:38;;;;;;;3.22;1.42;;;;;;;;;;4993308;28;20566;-71
2023/08/13 07:45:06;;;;;;;1.80;1.60;;;;;;;;;;4992751;28;20049;-71
2023/08/13 07:47:33;;;;;;;3.20;1.27;;;;;;;;;;4993038;28;20048;-70
2023/08/13 07:50:01;;;;;;;2.88;1.50;;;;;;;;;;4991961;28;20069;-71
2023/08/13 07:52:27;;;;;;;3.35;1.40;;;;;;;;;;4993051;28;20515;-71
2023/08/13 07:54:54;;;;;;;2.50;1.50;;;;;;;;;;4991665;28;20049;-71
2023/08/13 07:57:22;;;;;;;3.28;1.25;;;;;;;;;;4992692;28;20464;-70
2023/08/13 07:59:49;;;;;;;2.08;1.25;;;;;;;;;;4992166;28;20400;-70
2023/08/13 08:02:16;;;;;;;4.32;1.33;;;;;;;;;;4992741;28;20132;-71
2023/08/13 08:04:44;;;;;;;1.48;1.20;;;;;;;;;;4992557;28;20046;-71
2023/08/13 08:07:11;;;;;;;4.93;1.45;;;;;;;;;;4992801;28;20047;-70
2023/08/13 08:09:38;;;;;;;4.53;1.30;;;;;;;;;;4992285;28;20683;-71
2023/08/13 08:12:05;;;;;;;3.92;1.30;;;;;;;;;;4992182;28;20043;-71
2023/08/13 08:14:33;;;;;;;3.22;1.50;;;;;;;;;;4992764;28;20046;-71
2023/08/13 08:17:04;;;;;;;2.15;1.20;;;;;;;;;;4991951;28;20137;-71
2023/08/13 08:19:31;;;;;;;2.50;1.40;;;;;;;;;;4992144;28;20043;-71
2023/08/13 08:21:58;;;;;;;2.38;1.42;;;;;;;;;;4991516;28;20046;-71
2023/08/13 08:24:25;;;;;;;1.35;1.00;;;;;;;;;;4992461;28;20046;-71
2023/08/13 08:26:51;;;;;;;2.40;1.50;;;;;;;;;;4991901;28;20073;-71
2023/08/13 08:29:18;;;;;;;1.35;1.13;;;;;;;;;;4992098;28;20420;-70
2023/08/13 08:31:46;;;;;;;2.92;1.45;;;;;;;;;;4991180;28;20437;-71
2023/08/13 08:34:12;;;;;;;1.98;1.42;;;;;;;;;;4992220;28;20053;-71
2023/08/13 08:36:39;;;;;;;3.38;1.58;;;;;;;;;;4991758;28;20132;-71
2023/08/13 08:39:05;;;;;;;4.13;1.25;;;;;;;;;;4991885;28;20142;-71
2023/08/13 08:41:36;;;;;;;2.88;1.17;;;;;;;;;;4991308;28;20072;-71
2023/08/13 08:44:02;;;;;;;2.03;1.25;;;;;;;;;;4991682;28;20134;-71
2023/08/13 08:46:29;;;;;;;2.03;1.50;;;;;;;;;;4991770;28;20042;-71
2023/08/13 08:48:58;;;;;;;2.13;1.30;;;;;;;;;;4990991;28;20410;-72
2023/08/13 08:51:25;;;;;;;2.70;1.15;;;;;;;;;;4991386;28;20496;-71
2023/08/13 08:53:53;;;;;;;3.78;1.40;;;;;;;;;;4991284;28;20042;-71
2023/08/13 08:56:22;;;;;;;2.20;1.50;;;;;;;;;;4991360;28;20043;-71
2023/08/13 08:58:49;;;;;;;2.95;1.80;;;;;;;;;;4991131;28;20382;-71
2023/08/13 09:01:16;;;;;;;3.15;1.20;;;;;;;;;;4991091;28;20046;-71
2023/08/13 09:03:42;;;;;;;2.30;1.30;;;;;;;;;;4990803;28;20050;-71
2023/08/13 09:06:10;;;;;;;2.38;1.40;;;;;;;;;;4991097;28;20051;-71
2023/08/13 09:08:37;;;;;;;3.17;1.40;;;;;;;;;;4989996;28;20053;-71
2023/08/13 09:11:04;;;;;;;3.17;1.10;;;;;;;;;;4990951;28;20046;-71
2023/08/13 09:13:31;;;;;;;4.65;1.33;;;;;;;;;;4991098;28;20412;-71
2023/08/13 09:15:57;;;;;;;3.85;1.30;;;;;;;;;;4991430;28;20068;-71
2023/08/13 09:18:24;;;;;;;2.53;1.45;;;;;;;;;;4991086;28;20054;-71
2023/08/13 09:20:50;;;;;;;3.08;1.30;;;;;;;;;;4990986;28;20054;-71
2023/08/13 09:23:22;;;;;;;5.18;1.50;;;;;;;;;;4991212;28;20420;-71
2023/08/13 09:25:53;;;;;;;3.30;1.98;;;;;;;;;;4990624;28;20051;-71
2023/08/13 09:28:19;;;;;;;2.95;1.40;;;;;;;;;;4991149;28;20050;-71
2023/08/13 09:30:47;;;;;;;2.78;1.20;;;;;;;;;;4990021;28;20051;-71
2023/08/13 09:33:15;;;;;;;1.77;1.42;;;;;;;;;;4991288;28;20046;-71
2023/08/13 09:35:42;;;;;;;2.53;1.30;;;;;;;;;;4990435;28;20062;-71
2023/08/13 09:38:08;;;;;;;2.63;1.40;;;;;;;;;;4990747;28;20056;-71
2023/08/13 09:40:37;;;;;;;2.95;1.50;;;;;;;;;;4989993;28;20042;-71
2023/08/13 09:43:06;;;;;;;4.85;1.70;;;;;;;;;;4990780;28;20050;-71
2023/08/13 09:45:34;;;;;;;2.55;1.27;;;;;;;;;;4990321;28;20149;-71
2023/08/13 09:48:05;;;;;;;3.13;1.50;;;;;;;;;;4990370;28;20046;-71
2023/08/13 09:50:35;;;;;;;3.65;1.38;;;;;;;;;;4989779;28;20050;-71
2023/08/13 09:53:03;;;;;;;3.60;1.40;;;;;;;;;;4990822;28;20511;-71
2023/08/13 09:55:33;;;;;;;2.28;1.30;;;;;;;;;;4990162;28;20046;-71
2023/08/13 09:58:02;;;;;;;5.00;1.50;;;;;;;;;;4990417;28;20492;-71
2023/08/13 10:00:29;;;;;;;2.65;1.20;;;;;;;;;;4989995;28;20138;-71
2023/08/13 10:02:55;;;;;;;1.73;1.20;;;;;;;;;;4990391;28;20056;-71
2023/08/13 10:05:22;;;;;;;4.18;1.40;;;;;;;;;;4990444;28;20085;-70
2023/08/13 10:07:49;;;;;;;2.03;1.40;;;;;;;;;;4990093;28;20056;-71
2023/08/13 10:10:17;;;;;;;3.28;1.55;;;;;;;;;;4990080;28;20046;-71
2023/08/13 10:12:44;;;;;;;5.97;2.22;;;;;;;;;;5002810;23;20085;-68
2023/08/13 10:15:12;;;;;;;4.68;1.63;;;;;;;;;;4991116;28;20050;-68
2023/08/13 10:17:43;;;;;;;5.18;1.90;;;;;;;;;;4990417;28;20488;-68
2023/08/13 10:20:10;;;;;;;5.10;1.40;;;;;;;;;;4993748;28;20046;-68
2023/08/13 10:22:37;;;;;;;2.88;1.42;;;;;;;;;;4994523;28;20530;-67
2023/08/13 10:25:06;;;;;;;2.78;1.55;;;;;;;;;;4994805;28;20056;-68
2023/08/13 10:27:35;;;;;;;2.55;1.42;;;;;;;;;;4994543;28;20050;-67
2023/08/13 10:30:09;;;;;;;2.83;1.40;;;;;;;;;;4994109;28;20426;-68
2023/08/13 10:32:47;;;;;;;1.98;1.40;;;;;;;;;;4994129;28;20504;-67
2023/08/13 10:35:24;;;;;;;3.13;1.50;;;;;;;;;;4995085;28;20635;-67
2023/08/13 10:37:53;;;;;;;2.22;1.30;;;;;;;;;;4994119;28;20050;-68
2023/08/13 10:40:20;;;;;;;3.88;2.10;;;;;;;;;;4994408;28;20050;-67
2023/08/13 10:42:48;;;;;;;3.58;1.70;;;;;;;;;;4993990;28;20042;-68
2023/08/13 10:45:16;;;;;;;2.03;1.15;;;;;;;;;;4994352;28;20057;-68
2023/08/13 10:47:49;;;;;;;4.05;1.60;;;;;;;;;;4993656;28;20054;-68
2023/08/13 10:50:32;;;;;;;3.53;1.48;;;;;;;;;;4993929;28;20050;-68
2023/08/13 10:53:07;;;;;;;3.72;1.67;;;;;;;;;;4992204;28;20563;-68
2023/08/13 10:55:37;;;;;;;2.20;1.50;;;;;;;;;;4994263;28;20353;-68
2023/08/13 10:58:04;;;;;;;5.07;1.50;;;;;;;;;;4993829;28;20467;-68
2023/08/13 11:00:31;;;;;;;3.40;1.45;;;;;;;;;;4993576;28;20052;-68
2023/08/13 11:03:19;;;;;;;2.63;1.30;;;;;;;;;;4994091;28;20046;-66
2023/08/13 11:05:45;;;;;;;4.50;1.30;;;;;;;;;;4993524;28;20050;-66
2023/08/13 11:08:16;;;;;;;4.20;1.25;;;;;;;;;;4993893;28;20076;-66
2023/08/13 11:10:43;;;;;;;4.50;1.55;;;;;;;;;;4992801;28;20457;-67
2023/08/13 11:13:11;;;;;;;3.25;1.30;;;;;;;;;;4993645;28;20515;-67
2023/08/13 11:15:38;;;;;;;5.20;1.35;;;;;;;;;;4993254;28;20500;-67
2023/08/13 11:18:06;;;;;;;4.95;1.80;;;;;;;;;;4994263;28;20046;-67
2023/08/13 11:20:34;;;;;;;3.92;1.60;;;;;;;;;;4992879;28;20054;-67
2023/08/13 11:23:04;;;;;;;4.05;1.50;;;;;;;;;;4993664;28;20053;-67
2023/08/13 11:25:31;;;;;;;2.53;1.25;;;;;;;;;;4993477;28;20408;-67
2023/08/13 11:27:58;;;;;;;3.08;1.38;;;;;;;;;;4994130;28;20492;-67
2023/08/13 11:30:24;;;;;;;4.00;1.50;;;;;;;;;;4991950;28;20046;-66
2023/08/13 11:32:53;;;;;;;3.25;1.77;;;;;;;;;;4993565;28;20167;-67
2023/08/13 11:35:21;;;;;;;3.58;1.30;;;;;;;;;;4993050;28;20053;-67
2023/08/13 11:37:47;;;;;;;3.13;1.60;;;;;;;;;;4993073;28;20053;-67
2023/08/13 11:40:16;;;;;;;4.07;1.55;;;;;;;;;;4992939;28;20050;-66
2023/08/13 11:42:52;;;;;;;3.25;1.40;;;;;;;;;;4993404;28;20568;-67
2023/08/13 11:45:20;;;;;;;2.33;1.52;;;;;;;;;;4993440;28;20133;-67
2023/08/13 11:47:47;;;;;;;3.15;1.55;;;;;;;;;;4992986;28;20393;-68
2023/08/13 11:50:19;;;;;;;3.83;1.27;;;;;;;;;;4992738;28;20050;-66
2023/08/13 11:53:02;;;;;;;2.95;1.70;;;;;;;;;;4992902;28;20042;-67
2023/08/13 11:55:28;;;;;;;4.53;1.58;;;;;;;;;;4993286;28;20887;-67
2023/08/13 11:57:56;;;;;;;4.18;1.40;;;;;;;;;;4992802;28;20129;-67
2023/08/13 12:00:23;;;;;;;2.25;1.25;;;;;;;;;;4992893;28;20050;-67
2023/08/13 12:02:49;;;;;;;3.92;1.30;;;;;;;;;;4992048;28;20105;-66
2023/08/13 12:05:16;;;;;;;3.85;1.70;;;;;;;;;;4993056;28;20447;-66
2023/08/13 12:07:45;;;;;;;4.25;1.30;;;;;;;;;;4992359;28;20054;-68
2023/08/13 12:10:12;;;;;;;3.67;1.38;;;;;;;;;;4992435;28;20423;-67
2023/08/13 12:12:39;;;;;;;2.20;1.23;;;;;;;;;;4992145;28;20050;-67
2023/08/13 12:15:06;;;;;;;4.40;1.70;;;;;;;;;;4992828;28;20042;-66
2023/08/13 12:17:33;;;;;;;4.93;1.63;;;;;;;;;;4992070;28;20050;-68
2023/08/13 12:19:59;;;;;;;3.95;1.88;;;;;;;;;;4992402;28;20053;-68
2023/08/13 12:22:26;;;;;;;4.20;1.50;;;;;;;;;;4992367;28;20051;-66
2023/08/13 12:24:53;;;;;;;3.88;1.30;;;;;;;;;;4992496;28;20612;-66
2023/08/13 12:27:21;;;;;;;3.58;1.60;;;;;;;;;;4992480;28;20481;-66
2023/08/13 12:29:48;;;;;;;3.92;1.60;;;;;;;;;;4991948;28;20042;-68
2023/08/13 12:32:14;;;;;;;2.80;1.40;;;;;;;;;;4992462;28;20140;-66
2023/08/13 12:34:41;;;;;;;3.75;1.38;;;;;;;;;;4992083;28;20121;-67
2023/08/13 12:37:07;;;;;;;4.45;1.55;;;;;;;;;;4992503;28;20133;-67
2023/08/13 12:39:34;;;;;;;4.47;1.60;;;;;;;;;;4991340;28;20056;-67
2023/08/13 12:42:01;;;;;;;2.67;1.33;;;;;;;;;;4992234;28;20125;-67
2023/08/13 12:44:29;;;;;;;3.15;1.58;;;;;;;;;;4991709;28;20432;-66
2023/08/13 12:46:56;;;;;;;3.50;1.35;;;;;;;;;;4991672;28;20133;-67
2023/08/13 12:49:23;;;;;;;3.35;1.40;;;;;;;;;;4991541;28;20552;-66
2023/08/13 12:51:49;;;;;;;4.75;1.63;;;;;;;;;;4991581;28;20137;-67
2023/08/13 12:54:16;;;;;;;3.10;1.33;;;;;;;;;;4991729;28;20057;-67
2023/08/13 12:56:42;;;;;;;1.88;1.20;;;;;;;;;;4991851;28;20488;-67
2023/08/13 12:59:09;;;;;;;2.70;1.50;;;;;;;;;;4990935;28;20488;-67
2023/08/13 13:01:37;;;;;;;2.72;1.35;;;;;;;;;;4991253;28;20043;-67
2023/08/13 13:04:04;;;;;;;2.03;1.13;;;;;;;;;;4991750;28;20049;-67
2023/08/13 13:06:31;;;;;;;2.67;1.45;;;;;;;;;;4991106;28;20094;-67
2023/08/13 13:08:58;;;;;;;4.13;1.58;;;;;;;;;;4991374;28;20056;-67
2023/08/13 13:11:24;;;;;;;2.60;1.27;;;;;;;;;;4991268;28;20050;-67
2023/08/13 13:13:51;;;;;;;1.90;1.42;;;;;;;;;;4991026;28;20046;-67
2023/08/13 13:16:18;;;;;;;5.68;1.70;;;;;;;;;;4990322;28;20550;-67
2023/08/13 13:18:46;;;;;;;4.93;1.42;;;;;;;;;;4990776;28;20046;-67
2023/08/13 13:21:12;;;;;;;2.97;1.35;;;;;;;;;;4989930;28;20412;-67
2023/08/13 13:23:39;;;;;;;3.10;1.20;;;;;;;;;;4991036;28;20130;-67
2023/08/13 13:26:06;;;;;;;3.55;1.20;;;;;;;;;;4989948;28;20046;-67
2023/08/13 13:28:32;;;;;;;1.77;1.10;;;;;;;;;;4991075;28;20473;-67
2023/08/13 13:31:00;;;;;;;4.93;1.60;;;;;;;;;;4989587;28;20134;-67
2023/08/13 13:33:27;;;;;;;2.55;1.20;;;;;;;;;;4990657;28;20049;-67
2023/08/13 13:35:55;;;;;;;2.50;1.40;;;;;;;;;;4990039;28;20051;-67
2023/08/13 13:38:22;;;;;;;3.08;1.15;;;;;;;;;;4990534;28;20056;-67
2023/08/13 13:40:48;;;;;;;3.38;1.42;;;;;;;;;;4989895;28;20050;-67
2023/08/13 13:43:15;;;;;;;2.63;1.30;;;;;;;;;;4990362;28;20412;-67
2023/08/13 13:45:41;;;;;;;3.00;1.38;;;;;;;;;;4990481;28;20051;-67
2023/08/13 13:48:08;;;;;;;1.95;1.10;;;;;;;;;;4990066;28;20046;-67
2023/08/13 13:50:35;;;;;;;3.30;1.20;;;;;;;;;;4989822;28;20137;-67
2023/08/13 13:53:03;;;;;;;4.03;1.38;;;;;;;;;;4989108;28;20401;-67
2023/08/13 13:55:30;;;;;;;2.35;1.17;;;;;;;;;;4990024;28;20066;-67
2023/08/13 13:57:56;;;;;;;3.25;1.35;;;;;;;;;;4989749;28;20145;-67
2023/08/13 14:00:23;;;;;;;4.32;1.60;;;;;;;;;;4989908;28;20050;-67
2023/08/13 14:02:49;;;;;;;2.30;1.20;;;;;;;;;;4989824;28;20504;-66
2023/08/13 14:05:16;;;;;;;5.95;1.83;;;;;;;;;;4990573;28;20423;-67
2023/08/13 14:07:43;;;;;;;1.90;1.20;;;;;;;;;;4989781;28;20420;-67
2023/08/13 14:10:11;;;;;;;3.22;1.60;;;;;;;;;;4989940;28;20043;-67
2023/08/13 14:12:37;;;;;;;2.10;1.20;;;;;;;;;;4952221;28;1097121;-67
2023/08/13 14:15:05;;;;;;;1.92;1.15;;;;;;;;;;4990886;28;20046;-68
2023/08/13 14:17:31;;;;;;;3.03;1.30;;;;;;;;;;4990675;28;20072;-68
2023/08/13 14:19:58;;;;;;;2.88;1.25;;;;;;;;;;4989840;28;20050;-68
2023/08/13 14:22:25;;;;;;;3.85;1.27;;;;;;;;;;4990763;28;20053;-67
2023/08/13 14:24:51;;;;;;;2.55;1.20;;;;;;;;;;4990611;28;20551;-68
2023/08/13 14:27:19;;;;;;;2.50;1.20;;;;;;;;;;4990826;28;20141;-68
2023/08/13 14:29:46;;;;;;;3.67;1.20;;;;;;;;;;4989735;28;20392;-67
2023/08/13 14:32:13;;;;;;;2.45;1.00;;;;;;;;;;4990738;28;20411;-67
2023/08/13 14:34:40;;;;;;;2.50;1.40;;;;;;;;;;4990462;28;20085;-67
2023/08/13 14:37:06;;;;;;;1.98;1.10;;;;;;;;;;4990227;28;20053;-67
2023/08/13 14:39:33;;;;;;;2.92;1.25;;;;;;;;;;4990000;28;20058;-67
2023/08/13 14:41:59;;;;;;;3.08;1.38;;;;;;;;;;4990916;28;20042;-67
2023/08/13 14:44:27;;;;;;;2.05;1.15;;;;;;;;;;4990907;28;20053;-67